createdAt,value
2023-04-18T00:00:02.418Z,18.77
2023-04-18T00:02:39.990Z,18.92
2023-04-18T00:05:07.863Z,19.73
2023-04-18T00:07:37.566Z,19.45
2023-04-18T00:10:05.401Z,19.88
2023-04-18T00:12:34.633Z,19.60
2023-04-18T00:15:02.413Z,18.98
2023-04-18T00:17:30.451Z,19.65
2023-04-18T00:19:58.356Z,18.02
2023-04-18T00:22:25.992Z,18.85
2023-04-18T00:24:53.107Z,19.02
2023-04-18T00:27:20.628Z,18.95
2023-04-18T00:29:47.679Z,18.40
2023-04-18T00:32:16.917Z,19.27
2023-04-18T00:34:43.858Z,18.30
2023-04-18T00:37:12.915Z,18.92
2023-04-18T00:39:42.137Z,18.98
2023-04-18T00:42:09.130Z,18.95
2023-04-18T00:44:36.143Z,18.33
2023-04-18T00:47:03.107Z,18.10
2023-04-18T00:49:30.468Z,18.50
2023-04-18T00:51:57.422Z,18.98
2023-04-18T00:54:24.445Z,17.98
2023-04-18T00:56:51.520Z,19.70
2023-04-18T00:59:19.065Z,19.65
2023-04-18T01:01:46.344Z,20.30
2023-04-18T01:04:13.764Z,19.40
2023-04-18T01:06:41.793Z,19.05
2023-04-18T01:09:08.802Z,20.17
2023-04-18T01:11:36.097Z,19.88
2023-04-18T01:14:05.571Z,19.15
2023-04-18T01:16:37.208Z,18.85
2023-04-18T01:19:04.496Z,18.77
2023-04-18T01:21:33.979Z,19.73
2023-04-18T01:24:09.328Z,19.80
2023-04-18T01:26:36.408Z,19.42
2023-04-18T01:29:05.350Z,18.70
2023-04-18T01:31:38.694Z,18.80
2023-04-18T01:34:07.356Z,19.05
2023-04-18T01:36:36.082Z,18.33
2023-04-18T01:39:03.051Z,17.80
2023-04-18T01:41:32.789Z,17.88
2023-04-18T01:44:00.321Z,18.67
2023-04-18T01:46:27.922Z,20.15
2023-04-18T01:48:55.510Z,19.13
2023-04-18T01:51:22.522Z,18.80
2023-04-18T01:53:49.812Z,18.17
2023-04-18T01:56:16.885Z,18.73
2023-04-18T01:58:43.827Z,18.80
2023-04-18T02:01:12.550Z,19.48
2023-04-18T02:03:40.096Z,18.63
2023-04-18T02:06:07.638Z,18.90
2023-04-18T02:08:35.959Z,18.85
2023-04-18T02:11:05.255Z,17.98
2023-04-18T02:13:32.349Z,18.67
2023-04-18T02:15:59.321Z,19.05
2023-04-18T02:18:26.847Z,18.30
2023-04-18T02:20:53.815Z,18.13
2023-04-18T02:23:22.163Z,18.73
2023-04-18T02:25:49.240Z,17.52
2023-04-18T02:28:17.779Z,18.25
2023-04-18T02:30:45.008Z,18.38
2023-04-18T02:33:11.898Z,18.08
2023-04-18T02:35:38.884Z,18.10
2023-04-18T02:38:05.990Z,18.38
2023-04-18T02:40:32.988Z,17.95
2023-04-18T02:42:59.956Z,17.95
2023-04-18T02:45:26.848Z,18.63
2023-04-18T02:47:56.800Z,18.25
2023-04-18T02:50:24.870Z,18.48
2023-04-18T02:52:53.583Z,19.20
2023-04-18T02:55:22.578Z,18.17
2023-04-18T02:57:49.741Z,18.17
2023-04-18T03:00:36.130Z,18.45
2023-04-18T03:03:26.080Z,18.75
2023-04-18T03:06:00.476Z,18.10
2023-04-18T03:08:28.370Z,17.65
2023-04-18T03:10:56.320Z,17.60
2023-04-18T03:13:25.468Z,18.60
2023-04-18T03:15:52.501Z,18.88
2023-04-18T03:18:19.896Z,18.60
2023-04-18T03:20:47.146Z,17.92
2023-04-18T03:23:16.531Z,17.90
2023-04-18T03:25:43.888Z,17.30
2023-04-18T03:28:10.849Z,17.73
2023-04-18T03:30:37.962Z,16.73
2023-04-18T03:33:06.285Z,16.25
2023-04-18T03:35:33.725Z,17.02
2023-04-18T03:38:00.754Z,17.27
2023-04-18T03:40:30.817Z,17.75
2023-04-18T03:43:03.640Z,17.33
2023-04-18T03:45:31.296Z,18.73
2023-04-18T03:47:58.352Z,17.48
2023-04-18T03:50:25.997Z,16.85
2023-04-18T03:52:54.931Z,16.83
2023-04-18T03:55:22.296Z,16.45
2023-04-18T03:57:50.289Z,16.70
2023-04-18T04:00:25.827Z,16.65
2023-04-18T04:03:00.116Z,17.52
2023-04-18T04:05:27.394Z,17.05
2023-04-18T04:07:54.310Z,17.08
2023-04-18T04:10:21.412Z,17.45
2023-04-18T04:12:49.581Z,17.75
2023-04-18T04:15:16.810Z,18.45
2023-04-18T04:17:52.247Z,17.17
2023-04-18T04:20:24.211Z,17.17
2023-04-18T04:22:58.960Z,16.83
2023-04-18T04:25:29.811Z,15.68
2023-04-18T04:28:01.573Z,16.73
2023-04-18T04:30:30.022Z,16.60
2023-04-18T04:32:57.086Z,16.65
2023-04-18T04:35:24.053Z,17.70
2023-04-18T04:37:51.766Z,16.33
2023-04-18T04:40:30.847Z,16.30
2023-04-18T04:43:12.785Z,15.73
2023-04-18T04:45:41.559Z,15.80
2023-04-18T04:48:09.167Z,15.52
2023-04-18T04:50:37.082Z,14.60
2023-04-18T04:53:04.864Z,15.63
2023-04-18T04:55:32.765Z,15.77
2023-04-18T04:58:00.647Z,17.60
2023-04-18T05:00:52.544Z,16.67
2023-04-18T05:03:20.618Z,16.20
2023-04-18T05:05:47.809Z,16.67
2023-04-18T05:08:14.767Z,17.67
2023-04-18T05:10:43.296Z,17.20
2023-04-18T05:13:10.602Z,17.73
2023-04-18T05:15:37.637Z,17.83
2023-04-18T05:18:05.095Z,18.33
2023-04-18T05:20:32.154Z,18.13
2023-04-18T05:22:59.635Z,17.63
2023-04-18T05:25:26.947Z,17.23
2023-04-18T05:27:53.852Z,17.70
2023-04-18T05:30:20.792Z,17.70
2023-04-18T05:32:47.716Z,17.67
2023-04-18T05:35:14.716Z,18.13
2023-04-18T05:37:41.746Z,18.23
2023-04-18T05:40:09.242Z,17.58
2023-04-18T05:42:36.205Z,16.80
2023-04-18T05:45:03.383Z,17.38
2023-04-18T05:47:30.457Z,18.33
2023-04-18T05:49:57.465Z,17.77
2023-04-18T05:52:26.068Z,17.35
2023-04-18T05:54:53.298Z,17.75
2023-04-18T05:57:20.455Z,18.98
2023-04-18T05:59:47.467Z,17.52
2023-04-18T06:02:14.538Z,18.23
2023-04-18T06:04:42.207Z,17.52
2023-04-18T06:07:09.909Z,17.60
2023-04-18T06:09:37.037Z,17.52
2023-04-18T06:12:04.474Z,17.30
2023-04-18T06:14:31.411Z,18.40
2023-04-18T06:16:58.420Z,18.83
2023-04-18T06:19:25.613Z,18.02
2023-04-18T06:21:52.969Z,18.40
2023-04-18T06:24:20.168Z,18.75
2023-04-18T06:26:47.477Z,17.63
2023-04-18T06:29:14.590Z,18.63
2023-04-18T06:31:42.263Z,18.02
2023-04-18T06:34:09.451Z,18.98
2023-04-18T06:36:36.408Z,18.35
2023-04-18T06:39:03.963Z,18.45
2023-04-18T06:41:31.565Z,19.27
2023-04-18T06:46:28.375Z,18.38
2023-04-18T06:48:55.468Z,18.20
2023-04-18T06:51:22.374Z,18.27
2023-04-18T06:53:52.740Z,17.20
2023-04-18T06:56:22.962Z,18.65
2023-04-18T06:58:50.203Z,19.05
2023-04-18T07:01:17.179Z,18.58
2023-04-18T07:03:44.401Z,18.48
2023-04-18T07:06:11.401Z,18.77
2023-04-18T07:08:38.430Z,18.50
2023-04-18T07:11:06.493Z,18.35
2023-04-18T07:13:33.466Z,18.67
2023-04-18T07:16:01.382Z,18.88
2023-04-18T07:18:37.480Z,18.00
2023-04-18T07:21:09.108Z,19.05
2023-04-18T07:23:36.144Z,19.33
2023-04-18T07:26:05.418Z,17.33
2023-04-18T07:28:32.887Z,18.45
2023-04-18T07:31:01.286Z,17.65
2023-04-18T07:33:31.696Z,17.05
2023-04-18T07:35:58.775Z,16.90
2023-04-18T07:38:25.842Z,16.30
2023-04-18T07:40:59.469Z,16.88
2023-04-18T07:43:26.926Z,16.20
2023-04-18T07:45:54.098Z,15.40
2023-04-18T07:48:25.360Z,15.15
2023-04-18T07:50:52.391Z,14.88
2023-04-18T07:53:19.359Z,11.98
2023-04-18T07:55:46.710Z,12.35
2023-04-18T07:58:13.926Z,11.20
2023-04-18T08:00:42.629Z,11.68
2023-04-18T08:03:13.663Z,11.90
2023-04-18T08:05:41.655Z,12.27
2023-04-18T08:08:09.710Z,12.75
2023-04-18T08:10:36.754Z,11.48
2023-04-18T08:13:04.079Z,11.25
2023-04-18T08:15:32.778Z,11.48
2023-04-18T08:18:00.489Z,11.05
2023-04-18T08:20:27.563Z,11.45
2023-04-18T08:23:06.271Z,10.90
2023-04-18T08:25:37.089Z,11.40
2023-04-18T08:28:04.528Z,11.35
2023-04-18T08:30:31.658Z,10.90
2023-04-18T12:19:49.213Z,6.68
2023-04-18T12:22:16.917Z,7.90
2023-04-18T12:24:43.897Z,8.25
2023-04-18T12:27:12.236Z,7.40
2023-04-18T12:29:39.673Z,7.40
2023-04-18T12:32:06.835Z,7.68
2023-04-18T12:34:33.823Z,7.38
2023-04-18T12:37:01.016Z,8.00
2023-04-18T12:39:27.932Z,8.07
2023-04-18T12:41:54.946Z,7.20
2023-04-18T12:44:22.725Z,7.50
2023-04-18T12:46:49.759Z,7.40
2023-04-18T12:49:16.790Z,6.80
2023-04-18T12:51:43.726Z,6.70
2023-04-18T12:54:10.663Z,6.75
2023-04-18T12:56:37.688Z,6.75
2023-04-18T12:59:04.736Z,6.80
2023-04-18T13:01:31.831Z,6.93
2023-04-18T13:04:10.875Z,6.38
2023-04-18T13:06:40.003Z,6.97
2023-04-18T13:09:06.903Z,6.43
2023-04-18T13:11:33.876Z,7.05
2023-04-18T13:14:00.885Z,6.72
2023-04-18T13:16:27.936Z,6.45
2023-04-18T13:18:54.888Z,6.00
2023-04-18T13:21:25.003Z,5.55
2023-04-18T13:23:52.171Z,5.45
2023-04-18T13:26:19.211Z,5.60
2023-04-18T13:28:46.687Z,5.03
2023-04-18T13:31:15.672Z,5.18
2023-04-18T13:33:43.911Z,5.20
2023-04-18T13:36:11.386Z,5.28
2023-04-18T13:38:39.242Z,4.93
2023-04-18T13:41:12.143Z,4.80
2023-04-18T13:43:40.051Z,5.88
2023-04-18T13:46:07.087Z,5.25
2023-04-18T13:48:34.084Z,4.95
2023-04-18T13:51:02.446Z,6.00
2023-04-18T13:53:30.846Z,5.18
2023-04-18T13:55:58.208Z,4.95
2023-04-18T13:58:25.748Z,5.13
2023-04-18T14:00:52.841Z,4.80
2023-04-18T14:03:20.465Z,4.78
2023-04-18T14:05:47.536Z,4.78
2023-04-18T14:08:14.774Z,4.38
2023-04-18T14:10:41.913Z,4.38
2023-04-18T14:13:08.911Z,4.78
2023-04-18T14:15:35.867Z,4.50
2023-04-18T14:18:02.809Z,4.85
2023-04-18T14:20:34.446Z,4.25
2023-04-18T14:25:29.558Z,4.53
2023-04-18T14:28:08.751Z,4.20
2023-04-18T14:30:39.368Z,4.50
2023-04-18T14:33:06.569Z,5.10
2023-04-18T14:35:33.624Z,4.45
2023-04-18T14:38:00.637Z,5.00
2023-04-18T14:40:27.836Z,5.03
2023-04-18T14:42:54.765Z,5.10
2023-04-18T14:45:22.141Z,5.43
2023-04-18T14:47:49.167Z,5.25
2023-04-18T14:50:16.191Z,5.00
2023-04-18T14:52:43.274Z,5.20
2023-04-18T14:55:10.869Z,5.18
2023-04-18T14:57:38.156Z,5.47
2023-04-18T15:00:08.174Z,5.55
2023-04-18T15:02:35.219Z,5.57
2023-04-18T15:05:02.584Z,6.13
2023-04-18T15:07:29.589Z,6.20
2023-04-18T15:09:56.489Z,6.35
2023-04-18T15:12:23.402Z,5.97
2023-04-18T15:14:50.387Z,6.43
2023-04-18T15:17:17.381Z,6.10
2023-04-18T15:19:44.409Z,6.10
2023-04-18T15:22:11.786Z,6.13
2023-04-18T15:24:38.675Z,7.32
2023-04-18T15:27:06.197Z,7.68
2023-04-18T15:29:33.283Z,7.93
2023-04-18T15:32:00.420Z,7.85
2023-04-18T15:34:27.479Z,8.32
2023-04-18T15:36:54.383Z,8.65
2023-04-18T15:39:23.574Z,8.75
2023-04-18T15:41:54.560Z,9.10
2023-04-18T15:44:22.127Z,9.37
2023-04-18T15:46:49.448Z,9.30
2023-04-18T15:49:16.585Z,9.68
2023-04-18T15:51:43.602Z,9.60
2023-04-18T15:54:10.751Z,11.05
2023-04-18T15:56:38.029Z,10.05
2023-04-18T15:59:06.137Z,10.55
2023-04-18T16:01:33.478Z,11.20
2023-04-18T16:04:01.120Z,11.65
2023-04-18T16:06:28.250Z,11.77
2023-04-18T16:08:55.382Z,11.90
2023-04-18T16:11:26.207Z,11.77
2023-04-18T16:13:54.698Z,11.98
2023-04-18T16:16:21.843Z,12.25
2023-04-18T16:18:48.882Z,12.27
2023-04-18T16:21:16.240Z,12.25
2023-04-18T16:23:43.618Z,12.23
2023-04-18T16:26:10.741Z,12.30
2023-04-18T16:28:37.781Z,11.80
2023-04-18T16:31:05.663Z,12.60
2023-04-18T16:33:32.666Z,12.95
2023-04-18T16:36:00.569Z,12.70
2023-04-18T16:38:27.550Z,13.45
2023-04-18T16:40:56.647Z,13.65
2023-04-18T16:43:26.804Z,13.60
2023-04-18T16:45:56.506Z,13.35
2023-04-18T16:48:26.849Z,13.30
2023-04-18T16:50:53.774Z,13.07
2023-04-18T16:53:22.032Z,12.75
2023-04-18T16:55:50.467Z,13.50
2023-04-18T16:58:17.514Z,13.40
2023-04-18T17:00:45.104Z,13.05
2023-04-18T17:03:15.020Z,12.85
2023-04-18T17:05:42.505Z,12.73
2023-04-18T17:08:09.850Z,12.32
2023-04-18T17:10:37.557Z,12.95
2023-04-18T17:13:05.079Z,13.20
2023-04-18T17:15:32.243Z,13.68
2023-04-18T17:18:01.377Z,13.32
2023-04-18T17:20:28.498Z,13.00
2023-04-18T17:22:55.740Z,13.85
2023-04-18T17:25:22.723Z,14.32
2023-04-18T17:27:49.694Z,13.38
2023-04-18T17:30:16.794Z,13.07
2023-04-18T17:32:46.139Z,13.82
2023-04-18T17:35:14.735Z,12.65
2023-04-18T17:37:42.794Z,13.45
2023-04-18T17:40:11.538Z,13.27
2023-04-18T17:42:38.853Z,12.43
2023-04-18T17:45:07.044Z,13.18
2023-04-18T17:47:34.421Z,12.38
2023-04-18T17:50:01.498Z,12.75
2023-04-18T17:52:28.662Z,12.23
2023-04-18T17:54:56.460Z,12.55
2023-04-18T17:57:23.650Z,12.35
2023-04-18T17:59:50.640Z,12.35
2023-04-18T18:02:17.778Z,12.48
2023-04-18T18:04:45.143Z,12.27
2023-04-18T18:07:12.241Z,11.25
2023-04-18T18:09:39.290Z,11.23
2023-04-18T18:12:06.549Z,11.13
2023-04-18T18:14:33.536Z,11.52
2023-04-18T18:17:00.814Z,11.07
2023-04-18T18:19:27.818Z,10.82
2023-04-18T18:21:54.783Z,11.30
2023-04-18T18:24:21.690Z,10.70
2023-04-18T18:26:51.479Z,10.93
2023-04-18T18:29:19.414Z,10.18
2023-04-18T18:31:46.510Z,10.80
2023-04-18T18:34:14.018Z,11.38
2023-04-18T18:36:41.087Z,9.75
2023-04-18T18:39:08.555Z,10.77
2023-04-18T18:41:35.667Z,11.02
2023-04-18T18:44:02.723Z,11.02
2023-04-18T18:46:29.711Z,11.93
2023-04-18T18:48:56.832Z,10.98
2023-04-18T18:51:23.861Z,10.63
2023-04-18T18:53:50.844Z,11.25
2023-04-18T18:56:17.906Z,11.75
2023-04-18T18:58:45.000Z,11.50
2023-04-18T19:01:12.154Z,11.85
2023-04-18T19:03:39.632Z,12.50
2023-04-18T19:06:08.472Z,11.38
2023-04-18T19:08:35.857Z,11.00
2023-04-18T19:11:03.009Z,11.55
2023-04-18T19:13:30.080Z,12.35
2023-04-18T19:15:57.220Z,11.82
2023-04-18T19:18:24.402Z,11.60
2023-04-18T19:20:51.499Z,11.27
2023-04-18T19:23:19.509Z,11.50
2023-04-18T19:25:46.913Z,11.88
2023-04-18T19:28:14.612Z,11.43
2023-04-18T19:30:42.502Z,11.63
2023-04-18T19:33:09.829Z,11.40
2023-04-18T19:35:37.919Z,10.70
2023-04-18T19:38:05.217Z,11.13
2023-04-18T19:40:32.870Z,11.75
2023-04-18T19:42:59.986Z,12.70
2023-04-18T19:45:27.055Z,11.70
2023-04-18T19:47:54.102Z,11.75
2023-04-18T19:50:21.540Z,11.23
2023-04-18T19:52:48.437Z,11.98
2023-04-18T19:55:16.267Z,10.82
2023-04-18T19:57:44.070Z,11.32
2023-04-18T20:00:12.704Z,11.43
2023-04-18T20:02:41.009Z,12.32
2023-04-18T20:05:09.185Z,11.60
2023-04-18T20:07:36.323Z,12.15
2023-04-18T20:10:04.546Z,12.15
2023-04-18T20:12:31.796Z,11.75
2023-04-18T20:14:59.036Z,11.95
2023-04-18T20:17:26.244Z,12.00
2023-04-18T20:19:53.597Z,12.07
2023-04-18T20:22:20.805Z,12.55
2023-04-18T20:24:49.381Z,12.23
2023-04-18T20:27:18.883Z,12.00
2023-04-18T20:29:46.901Z,11.07
2023-04-18T20:32:14.002Z,11.23
2023-04-18T20:34:41.096Z,11.57
2023-04-18T20:37:09.464Z,11.60
2023-04-18T20:39:38.153Z,11.75
2023-04-18T20:42:05.333Z,12.57
2023-04-18T20:44:34.770Z,11.70
2023-04-18T20:47:02.358Z,13.30
2023-04-18T20:49:29.930Z,11.95
2023-04-18T20:51:56.913Z,11.65
2023-04-18T20:54:24.099Z,11.77
2023-04-18T20:56:51.097Z,12.32
2023-04-18T20:59:18.914Z,12.57
2023-04-18T21:01:46.982Z,12.35
2023-04-18T21:04:14.536Z,14.10
2023-04-18T21:06:42.773Z,13.43
2023-04-18T21:09:09.710Z,12.75
2023-04-18T21:11:36.619Z,12.93
2023-04-18T21:14:06.656Z,12.85
2023-04-18T21:16:34.011Z,13.48
2023-04-18T21:19:01.348Z,13.93
2023-04-18T21:21:28.880Z,13.10
2023-04-18T21:23:55.917Z,13.05
2023-04-18T21:26:23.032Z,13.23
2023-04-18T21:28:53.414Z,13.85
2023-04-18T21:31:20.672Z,13.02
2023-04-18T21:33:48.277Z,13.60
2023-04-18T21:36:16.534Z,14.48
2023-04-18T21:38:43.639Z,13.27
2023-04-18T21:41:10.566Z,14.25
2023-04-18T21:43:37.516Z,13.40
2023-04-18T21:46:04.563Z,13.55
2023-04-18T21:48:31.637Z,14.60
2023-04-18T21:50:58.637Z,13.82
2023-04-18T21:53:25.611Z,12.55
2023-04-18T21:55:52.833Z,14.10
2023-04-18T21:58:19.814Z,13.70
2023-04-18T22:00:47.058Z,14.77
2023-04-18T22:03:14.224Z,13.73
2023-04-18T22:05:41.272Z,14.43
2023-04-18T22:08:08.250Z,13.70
2023-04-18T22:10:35.271Z,13.45
2023-04-18T22:13:03.324Z,14.00
2023-04-18T22:15:30.295Z,13.68
2023-04-18T22:17:59.201Z,13.98
2023-04-18T22:20:26.895Z,14.30
2023-04-18T22:22:54.276Z,13.38
2023-04-18T22:25:21.505Z,14.05
2023-04-18T22:27:48.447Z,13.57
2023-04-18T22:30:15.546Z,13.98
2023-04-18T22:32:42.665Z,15.10
2023-04-18T22:35:09.873Z,14.45
2023-04-18T22:37:36.854Z,15.30
2023-04-18T22:40:05.304Z,14.90
2023-04-18T22:42:33.738Z,14.32
2023-04-18T22:45:00.823Z,14.85
2023-04-18T22:47:27.930Z,14.75
2023-04-18T22:49:55.018Z,14.52
2023-04-18T22:52:24.875Z,14.93
2023-04-18T22:54:52.361Z,14.57
2023-04-18T22:57:19.315Z,15.05
2023-04-18T22:59:46.242Z,14.25
2023-04-18T23:02:14.108Z,15.18
2023-04-18T23:04:42.331Z,14.63
2023-04-18T23:07:09.516Z,15.18
2023-04-18T23:09:36.470Z,16.25
2023-04-18T23:12:03.751Z,15.70
2023-04-18T23:14:30.739Z,15.13
2023-04-18T23:16:57.724Z,15.70
2023-04-18T23:19:24.697Z,16.20
2023-04-18T23:21:51.994Z,16.10
2023-04-18T23:24:18.991Z,17.02
2023-04-18T23:26:46.628Z,16.40
2023-04-18T23:29:13.535Z,16.98
2023-04-18T23:31:40.947Z,16.45
2023-04-18T23:34:09.217Z,17.00
2023-04-18T23:36:36.959Z,15.45
2023-04-18T23:39:04.339Z,15.90
2023-04-18T23:41:31.404Z,16.13
2023-04-18T23:43:59.394Z,16.95
2023-04-18T23:46:26.769Z,16.02
2023-04-18T23:48:53.845Z,16.85
2023-04-18T23:51:20.780Z,17.13
2023-04-18T23:53:47.728Z,15.85
2023-04-18T23:56:14.724Z,16.10
2023-04-18T23:58:41.733Z,16.55
